sensor_id;sensor_type;location;lat;lon;timestamp;temperature;humidity
13744;DHT22;6943;52.368;9.966;2022-12-07T00:00:55;4.70;99.90
13744;DHT22;6943;52.368;9.966;2022-12-07T00:03:29;4.80;99.90
13744;DHT22;6943;52.368;9.966;2022-12-07T00:05:57;4.80;99.90
13744;DHT22;6943;52.368;9.966;2022-12-07T00:08:23;4.80;99.90
13744;DHT22;6943;52.368;9.966;2022-12-07T00:10:48;4.80;99.90
13744;DHT22;6943;52.368;9.966;2022-12-07T00:13:14;4.80;99.90
13744;DHT22;6943;52.368;9.966;2022-12-07T00:15:39;4.80;99.90
13744;DHT22;6943;52.368;9.966;2022-12-07T00:18:05;4.80;1.00
13744;DHT22;6943;52.368;9.966;2022-12-07T00:20:30;4.80;1.00
13744;DHT22;6943;52.368;9.966;2022-12-07T00:22:56;4.80;1.00
13744;DHT22;6943;52.368;9.966;2022-12-07T00:25:22;4.80;1.00
13744;DHT22;6943;52.368;9.966;2022-12-07T00:27:47;4.80;1.00
13744;DHT22;6943;52.368;9.966;2022-12-07T00:30:13;4.80;1.00
13744;DHT22;6943;52.368;9.966;2022-12-07T00:32:38;4.80;1.00
13744;DHT22;6943;52.368;9.966;2022-12-07T00:35:04;4.80;1.00
13744;DHT22;6943;52.368;9.966;2022-12-07T00:37:30;4.90;1.00
13744;DHT22;6943;52.368;9.966;2022-12-07T00:39:55;4.90;1.00
13744;DHT22;6943;52.368;9.966;2022-12-07T00:42:21;4.80;1.00
13744;DHT22;6943;52.368;9.966;2022-12-07T00:44:46;4.90;1.00
13744;DHT22;6943;52.368;9.966;2022-12-07T00:47:12;4.90;1.00
13744;DHT22;6943;52.368;9.966;2022-12-07T00:49:37;4.90;1.00
13744;DHT22;6943;52.368;9.966;2022-12-07T00:52:03;5.00;1.00
13744;DHT22;6943;52.368;9.966;2022-12-07T00:54:28;5.00;1.00
13744;DHT22;6943;52.368;9.966;2022-12-07T00:56:54;5.00;1.00
13744;DHT22;6943;52.368;9.966;2022-12-07T00:59:19;5.10;1.00
13744;DHT22;6943;52.368;9.966;2022-12-07T01:01:45;5.00;1.00
13744;DHT22;6943;52.368;9.966;2022-12-07T01:04:10;5.00;1.00
13744;DHT22;6943;52.368;9.966;2022-12-07T01:06:36;5.00;1.00
13744;DHT22;6943;52.368;9.966;2022-12-07T01:09:02;5.00;1.00
13744;DHT22;6943;52.368;9.966;2022-12-07T01:11:29;5.00;1.00
13744;DHT22;6943;52.368;9.966;2022-12-07T01:13:57;5.10;1.00
13744;DHT22;6943;52.368;9.966;2022-12-07T01:16:25;5.10;1.00
13744;DHT22;6943;52.368;9.966;2022-12-07T01:18:52;5.10;1.00
13744;DHT22;6943;52.368;9.966;2022-12-07T01:21:24;5.10;1.00
13744;DHT22;6943;52.368;9.966;2022-12-07T01:23:50;5.00;1.00
13744;DHT22;6943;52.368;9.966;2022-12-07T01:26:18;5.00;1.00
13744;DHT22;6943;52.368;9.966;2022-12-07T01:28:45;5.00;1.00
13744;DHT22;6943;52.368;9.966;2022-12-07T01:31:14;5.00;1.00
13744;DHT22;6943;52.368;9.966;2022-12-07T01:33:42;5.00;1.00
13744;DHT22;6943;52.368;9.966;2022-12-07T01:36:25;5.00;1.00
13744;DHT22;6943;52.368;9.966;2022-12-07T01:38:54;5.00;1.00
13744;DHT22;6943;52.368;9.966;2022-12-07T01:41:23;5.00;1.00
13744;DHT22;6943;52.368;9.966;2022-12-07T01:44:13;5.00;1.00
13744;DHT22;6943;52.368;9.966;2022-12-07T01:46:39;5.10;1.00
13744;DHT22;6943;52.368;9.966;2022-12-07T01:49:07;5.00;1.00
13744;DHT22;6943;52.368;9.966;2022-12-07T01:51:34;5.20;1.00
13744;DHT22;6943;52.368;9.966;2022-12-07T01:54:01;5.10;10.50
13744;DHT22;6943;52.368;9.966;2022-12-07T01:56:28;5.20;19.20
13744;DHT22;6943;52.368;9.966;2022-12-07T01:58:55;5.20;24.00
13744;DHT22;6943;52.368;9.966;2022-12-07T02:01:21;5.20;26.90
13744;DHT22;6943;52.368;9.966;2022-12-07T02:03:47;5.20;44.10
13744;DHT22;6943;52.368;9.966;2022-12-07T02:06:17;5.30;65.70
13744;DHT22;6943;52.368;9.966;2022-12-07T02:08:44;5.30;82.60
13744;DHT22;6943;52.368;9.966;2022-12-07T02:11:10;5.30;28.20
13744;DHT22;6943;52.368;9.966;2022-12-07T02:13:38;5.20;13.90
13744;DHT22;6943;52.368;9.966;2022-12-07T02:16:35;5.20;49.70
13744;DHT22;6943;52.368;9.966;2022-12-07T02:27:38;5.10;99.90
13744;DHT22;6943;52.368;9.966;2022-12-07T02:30:10;5.10;99.90
13744;DHT22;6943;52.368;9.966;2022-12-07T02:32:59;5.20;99.90
13744;DHT22;6943;52.368;9.966;2022-12-07T02:41:15;5.10;1.00
13744;DHT22;6943;52.368;9.966;2022-12-07T02:43:53;5.00;1.00
13744;DHT22;6943;52.368;9.966;2022-12-07T02:46:29;4.90;1.00
13744;DHT22;6943;52.368;9.966;2022-12-07T02:48:55;4.80;1.00
13744;DHT22;6943;52.368;9.966;2022-12-07T02:51:22;4.70;67.00
13744;DHT22;6943;52.368;9.966;2022-12-07T02:53:48;4.70;99.20
13744;DHT22;6943;52.368;9.966;2022-12-07T02:56:39;4.80;99.90
13744;DHT22;6943;52.368;9.966;2022-12-07T03:10:28;4.40;99.90
13744;DHT22;6943;52.368;9.966;2022-12-07T03:13:02;4.40;99.90
13744;DHT22;6943;52.368;9.966;2022-12-07T03:15:48;4.50;99.90
13744;DHT22;6943;52.368;9.966;2022-12-07T03:18:18;4.40;99.90
13744;DHT22;6943;52.368;9.966;2022-12-07T03:20:45;4.40;99.90
13744;DHT22;6943;52.368;9.966;2022-12-07T03:23:15;4.40;99.90
13744;DHT22;6943;52.368;9.966;2022-12-07T03:25:47;4.40;99.90
13744;DHT22;6943;52.368;9.966;2022-12-07T03:28:16;4.30;99.90
13744;DHT22;6943;52.368;9.966;2022-12-07T03:33:19;4.40;99.90
13744;DHT22;6943;52.368;9.966;2022-12-07T03:36:00;4.40;99.90
13744;DHT22;6943;52.368;9.966;2022-12-07T03:38:32;4.60;99.90
13744;DHT22;6943;52.368;9.966;2022-12-07T03:41:38;4.70;99.90
13744;DHT22;6943;52.368;9.966;2022-12-07T03:43:57;4.80;99.90
13744;DHT22;6943;52.368;9.966;2022-12-07T03:46:37;4.90;99.90
13744;DHT22;6943;52.368;9.966;2022-12-07T03:54:49;5.00;6.20
13744;DHT22;6943;52.368;9.966;2022-12-07T03:57:17;5.00;1.00
13744;DHT22;6943;52.368;9.966;2022-12-07T03:59:44;5.00;1.00
13744;DHT22;6943;52.368;9.966;2022-12-07T04:02:12;5.00;1.00
13744;DHT22;6943;52.368;9.966;2022-12-07T04:04:39;5.00;1.00
13744;DHT22;6943;52.368;9.966;2022-12-07T04:07:05;5.00;1.00
13744;DHT22;6943;52.368;9.966;2022-12-07T04:09:30;5.00;1.00
13744;DHT22;6943;52.368;9.966;2022-12-07T04:11:56;4.90;1.00
13744;DHT22;6943;52.368;9.966;2022-12-07T04:14:21;4.80;1.00
13744;DHT22;6943;52.368;9.966;2022-12-07T04:16:52;4.70;1.00
13744;DHT22;6943;52.368;9.966;2022-12-07T04:19:20;4.70;1.00
13744;DHT22;6943;52.368;9.966;2022-12-07T04:21:46;4.70;1.00
13744;DHT22;6943;52.368;9.966;2022-12-07T04:24:13;4.60;1.00
13744;DHT22;6943;52.368;9.966;2022-12-07T04:26:40;4.60;1.00
13744;DHT22;6943;52.368;9.966;2022-12-07T04:29:07;4.50;1.00
13744;DHT22;6943;52.368;9.966;2022-12-07T04:31:33;4.50;1.00
13744;DHT22;6943;52.368;9.966;2022-12-07T04:33:58;4.50;1.00
13744;DHT22;6943;52.368;9.966;2022-12-07T04:36:24;4.50;1.00
13744;DHT22;6943;52.368;9.966;2022-12-07T04:38:49;4.50;1.00
13744;DHT22;6943;52.368;9.966;2022-12-07T04:41:15;4.50;1.00
13744;DHT22;6943;52.368;9.966;2022-12-07T04:43:40;4.60;1.00
13744;DHT22;6943;52.368;9.966;2022-12-07T04:46:06;4.60;1.00
13744;DHT22;6943;52.368;9.966;2022-12-07T04:48:32;4.70;1.00
13744;DHT22;6943;52.368;9.966;2022-12-07T04:50:57;4.70;1.00
13744;DHT22;6943;52.368;9.966;2022-12-07T04:53:23;4.70;1.00
13744;DHT22;6943;52.368;9.966;2022-12-07T04:55:49;4.70;1.00
13744;DHT22;6943;52.368;9.966;2022-12-07T04:58:14;4.70;1.00
13744;DHT22;6943;52.368;9.966;2022-12-07T05:00:40;4.80;1.00
13744;DHT22;6943;52.368;9.966;2022-12-07T05:03:05;4.80;1.00
13744;DHT22;6943;52.368;9.966;2022-12-07T05:05:31;4.80;1.00
13744;DHT22;6943;52.368;9.966;2022-12-07T05:07:57;4.90;1.00
13744;DHT22;6943;52.368;9.966;2022-12-07T05:10:23;4.90;1.00
13744;DHT22;6943;52.368;9.966;2022-12-07T05:12:48;4.90;1.00
13744;DHT22;6943;52.368;9.966;2022-12-07T05:15:14;4.90;1.00
13744;DHT22;6943;52.368;9.966;2022-12-07T05:17:40;4.90;99.90
13744;DHT22;6943;52.368;9.966;2022-12-07T05:20:06;5.00;99.90
13744;DHT22;6943;52.368;9.966;2022-12-07T05:22:33;4.80;99.90
13744;DHT22;6943;52.368;9.966;2022-12-07T05:24:58;4.90;99.90
13744;DHT22;6943;52.368;9.966;2022-12-07T05:27:24;4.90;99.90
13744;DHT22;6943;52.368;9.966;2022-12-07T05:29:50;4.90;99.90
13744;DHT22;6943;52.368;9.966;2022-12-07T05:32:16;4.90;99.90
13744;DHT22;6943;52.368;9.966;2022-12-07T05:34:42;4.90;37.20
13744;DHT22;6943;52.368;9.966;2022-12-07T05:37:07;4.90;1.00
13744;DHT22;6943;52.368;9.966;2022-12-07T05:39:33;5.00;1.00
13744;DHT22;6943;52.368;9.966;2022-12-07T05:41:59;5.00;1.00
13744;DHT22;6943;52.368;9.966;2022-12-07T05:44:44;5.00;1.00
13744;DHT22;6943;52.368;9.966;2022-12-07T05:47:11;5.00;99.90
13744;DHT22;6943;52.368;9.966;2022-12-07T05:49:37;5.00;99.90
13744;DHT22;6943;52.368;9.966;2022-12-07T05:52:03;5.00;99.90
13744;DHT22;6943;52.368;9.966;2022-12-07T05:54:29;5.00;1.00
13744;DHT22;6943;52.368;9.966;2022-12-07T05:56:55;5.00;1.00
13744;DHT22;6943;52.368;9.966;2022-12-07T05:59:20;5.00;1.00
13744;DHT22;6943;52.368;9.966;2022-12-07T06:02:00;5.00;1.00
13744;DHT22;6943;52.368;9.966;2022-12-07T06:04:29;4.90;1.00
13744;DHT22;6943;52.368;9.966;2022-12-07T06:06:55;4.90;1.00
13744;DHT22;6943;52.368;9.966;2022-12-07T06:09:23;5.00;1.00
13744;DHT22;6943;52.368;9.966;2022-12-07T06:11:48;4.90;1.00
13744;DHT22;6943;52.368;9.966;2022-12-07T06:14:33;4.90;1.00
13744;DHT22;6943;52.368;9.966;2022-12-07T06:16:59;4.90;1.00
13744;DHT22;6943;52.368;9.966;2022-12-07T06:19:24;4.90;99.90
13744;DHT22;6943;52.368;9.966;2022-12-07T06:21:50;4.90;99.90
13744;DHT22;6943;52.368;9.966;2022-12-07T06:24:16;4.90;99.90
13744;DHT22;6943;52.368;9.966;2022-12-07T06:26:42;4.90;99.90
13744;DHT22;6943;52.368;9.966;2022-12-07T06:29:09;4.90;99.90
13744;DHT22;6943;52.368;9.966;2022-12-07T06:31:35;4.90;99.90
13744;DHT22;6943;52.368;9.966;2022-12-07T06:34:03;4.90;1.00
13744;DHT22;6943;52.368;9.966;2022-12-07T06:36:29;4.80;1.00
13744;DHT22;6943;52.368;9.966;2022-12-07T06:38:55;4.80;1.00
13744;DHT22;6943;52.368;9.966;2022-12-07T06:41:20;4.80;95.30
13744;DHT22;6943;52.368;9.966;2022-12-07T06:43:46;4.80;90.20
13744;DHT22;6943;52.368;9.966;2022-12-07T06:46:13;4.70;99.90
13744;DHT22;6943;52.368;9.966;2022-12-07T06:48:39;4.70;99.90
13744;DHT22;6943;52.368;9.966;2022-12-07T06:51:05;4.70;99.90
13744;DHT22;6943;52.368;9.966;2022-12-07T06:53:30;4.70;99.90
13744;DHT22;6943;52.368;9.966;2022-12-07T06:55:56;4.70;1.00
13744;DHT22;6943;52.368;9.966;2022-12-07T06:58:21;4.70;1.00
13744;DHT22;6943;52.368;9.966;2022-12-07T07:00:48;4.80;1.00
13744;DHT22;6943;52.368;9.966;2022-12-07T07:03:14;4.80;1.00
13744;DHT22;6943;52.368;9.966;2022-12-07T07:05:39;4.80;1.00
13744;DHT22;6943;52.368;9.966;2022-12-07T07:08:05;4.80;1.00
13744;DHT22;6943;52.368;9.966;2022-12-07T07:10:30;4.80;99.90
13744;DHT22;6943;52.368;9.966;2022-12-07T07:12:56;4.80;99.90
13744;DHT22;6943;52.368;9.966;2022-12-07T07:15:22;4.80;1.00
13744;DHT22;6943;52.368;9.966;2022-12-07T07:17:47;4.70;1.00
13744;DHT22;6943;52.368;9.966;2022-12-07T07:20:13;4.70;1.00
13744;DHT22;6943;52.368;9.966;2022-12-07T07:22:38;4.70;1.00
13744;DHT22;6943;52.368;9.966;2022-12-07T07:25:04;4.70;1.00
13744;DHT22;6943;52.368;9.966;2022-12-07T07:27:30;4.70;1.00
13744;DHT22;6943;52.368;9.966;2022-12-07T07:29:55;4.70;1.00
13744;DHT22;6943;52.368;9.966;2022-12-07T07:32:21;4.70;1.00
13744;DHT22;6943;52.368;9.966;2022-12-07T07:34:47;4.70;1.00
13744;DHT22;6943;52.368;9.966;2022-12-07T07:37:13;4.70;1.00
13744;DHT22;6943;52.368;9.966;2022-12-07T07:39:39;4.70;1.00
13744;DHT22;6943;52.368;9.966;2022-12-07T07:42:05;4.80;1.00
13744;DHT22;6943;52.368;9.966;2022-12-07T07:44:30;4.80;1.00
13744;DHT22;6943;52.368;9.966;2022-12-07T07:46:56;4.80;1.00
13744;DHT22;6943;52.368;9.966;2022-12-07T07:49:21;4.80;1.00
13744;DHT22;6943;52.368;9.966;2022-12-07T07:51:47;4.80;1.00
13744;DHT22;6943;52.368;9.966;2022-12-07T07:54:13;4.80;1.00
13744;DHT22;6943;52.368;9.966;2022-12-07T07:56:39;4.80;1.00
13744;DHT22;6943;52.368;9.966;2022-12-07T07:59:04;4.80;1.00
13744;DHT22;6943;52.368;9.966;2022-12-07T08:01:30;4.80;1.00
13744;DHT22;6943;52.368;9.966;2022-12-07T08:03:55;4.80;1.00
13744;DHT22;6943;52.368;9.966;2022-12-07T08:06:21;4.90;1.00
13744;DHT22;6943;52.368;9.966;2022-12-07T08:08:46;4.90;99.90
13744;DHT22;6943;52.368;9.966;2022-12-07T08:11:12;4.90;99.90
13744;DHT22;6943;52.368;9.966;2022-12-07T08:13:37;4.90;99.90
13744;DHT22;6943;52.368;9.966;2022-12-07T08:16:05;4.90;99.90
13744;DHT22;6943;52.368;9.966;2022-12-07T08:18:35;4.90;99.90
13744;DHT22;6943;52.368;9.966;2022-12-07T08:21:02;5.00;1.00
13744;DHT22;6943;52.368;9.966;2022-12-07T08:23:28;5.00;1.00
13744;DHT22;6943;52.368;9.966;2022-12-07T08:25:54;5.00;1.00
13744;DHT22;6943;52.368;9.966;2022-12-07T08:28:20;5.10;1.00
13744;DHT22;6943;52.368;9.966;2022-12-07T08:30:45;5.10;1.00
13744;DHT22;6943;52.368;9.966;2022-12-07T08:33:11;5.10;1.00
13744;DHT22;6943;52.368;9.966;2022-12-07T08:35:36;5.10;1.00
13744;DHT22;6943;52.368;9.966;2022-12-07T08:38:02;5.10;1.00
13744;DHT22;6943;52.368;9.966;2022-12-07T08:40:29;5.10;99.90
13744;DHT22;6943;52.368;9.966;2022-12-07T08:42:55;5.10;99.90
13744;DHT22;6943;52.368;9.966;2022-12-07T08:45:21;5.20;29.30
13744;DHT22;6943;52.368;9.966;2022-12-07T08:47:56;5.20;99.90
13744;DHT22;6943;52.368;9.966;2022-12-07T08:50:23;5.20;1.00
13744;DHT22;6943;52.368;9.966;2022-12-07T08:52:51;5.20;1.00
13744;DHT22;6943;52.368;9.966;2022-12-07T08:55:18;5.30;1.00
13744;DHT22;6943;52.368;9.966;2022-12-07T08:57:44;5.30;1.00
13744;DHT22;6943;52.368;9.966;2022-12-07T09:00:10;5.30;99.90
13744;DHT22;6943;52.368;9.966;2022-12-07T09:02:36;5.30;99.90
13744;DHT22;6943;52.368;9.966;2022-12-07T09:05:01;5.40;99.90
13744;DHT22;6943;52.368;9.966;2022-12-07T09:07:27;5.40;99.90
13744;DHT22;6943;52.368;9.966;2022-12-07T09:09:53;5.50;72.70
13744;DHT22;6943;52.368;9.966;2022-12-07T09:12:18;5.50;1.00
13744;DHT22;6943;52.368;9.966;2022-12-07T09:14:44;5.60;1.00
13744;DHT22;6943;52.368;9.966;2022-12-07T09:17:11;5.60;1.00
13744;DHT22;6943;52.368;9.966;2022-12-07T09:19:38;5.60;1.00
13744;DHT22;6943;52.368;9.966;2022-12-07T09:22:04;5.60;1.00
13744;DHT22;6943;52.368;9.966;2022-12-07T09:24:33;5.60;1.00
13744;DHT22;6943;52.368;9.966;2022-12-07T09:26:58;5.60;1.00
13744;DHT22;6943;52.368;9.966;2022-12-07T09:29:24;5.60;99.90
13744;DHT22;6943;52.368;9.966;2022-12-07T09:31:51;5.90;1.00
13744;DHT22;6943;52.368;9.966;2022-12-07T09:34:17;5.50;99.90
13744;DHT22;6943;52.368;9.966;2022-12-07T09:36:43;5.60;99.90
13744;DHT22;6943;52.368;9.966;2022-12-07T09:39:09;5.60;99.90
13744;DHT22;6943;52.368;9.966;2022-12-07T09:41:41;5.70;99.90
13744;DHT22;6943;52.368;9.966;2022-12-07T09:44:14;5.70;28.90
13744;DHT22;6943;52.368;9.966;2022-12-07T09:46:43;5.80;1.00
13744;DHT22;6943;52.368;9.966;2022-12-07T09:49:12;5.90;1.00
13744;DHT22;6943;52.368;9.966;2022-12-07T09:51:38;5.90;99.90
13744;DHT22;6943;52.368;9.966;2022-12-07T09:54:04;6.00;1.00
13744;DHT22;6943;52.368;9.966;2022-12-07T09:56:30;6.00;1.00
13744;DHT22;6943;52.368;9.966;2022-12-07T09:59:01;6.00;1.00
13744;DHT22;6943;52.368;9.966;2022-12-07T10:01:30;6.10;1.00
13744;DHT22;6943;52.368;9.966;2022-12-07T10:06:35;6.20;1.00
13744;DHT22;6943;52.368;9.966;2022-12-07T10:09:00;6.30;1.00
13744;DHT22;6943;52.368;9.966;2022-12-07T10:11:26;6.30;1.00
13744;DHT22;6943;52.368;9.966;2022-12-07T10:13:52;6.30;1.00
13744;DHT22;6943;52.368;9.966;2022-12-07T10:18:50;6.20;1.00
13744;DHT22;6943;52.368;9.966;2022-12-07T10:24:12;6.40;1.00
13744;DHT22;6943;52.368;9.966;2022-12-07T10:29:29;6.80;1.00
13744;DHT22;6943;52.368;9.966;2022-12-07T10:34:44;6.80;1.00
13744;DHT22;6943;52.368;9.966;2022-12-07T10:42:30;6.70;1.00
13744;DHT22;6943;52.368;9.966;2022-12-07T10:45:16;6.60;1.00
13744;DHT22;6943;52.368;9.966;2022-12-07T10:48:40;6.40;1.00
13744;DHT22;6943;52.368;9.966;2022-12-07T10:51:09;6.30;99.90
13744;DHT22;6943;52.368;9.966;2022-12-07T10:53:53;6.30;99.90
13744;DHT22;6943;52.368;9.966;2022-12-07T11:09:52;6.20;1.00
13744;DHT22;6943;52.368;9.966;2022-12-07T11:15:13;6.30;1.00
13744;DHT22;6943;52.368;9.966;2022-12-07T11:21:13;6.40;1.00
13744;DHT22;6943;52.368;9.966;2022-12-07T11:26:49;6.40;99.90
13744;DHT22;6943;52.368;9.966;2022-12-07T11:37:57;6.50;99.90
13744;DHT22;6943;52.368;9.966;2022-12-07T11:40:30;6.50;99.90
13744;DHT22;6943;52.368;9.966;2022-12-07T11:43:26;6.50;97.70
13744;DHT22;6943;52.368;9.966;2022-12-07T11:46:00;6.40;1.00
13744;DHT22;6943;52.368;9.966;2022-12-07T11:48:45;6.20;1.00
13744;DHT22;6943;52.368;9.966;2022-12-07T11:51:13;6.10;1.00
13744;DHT22;6943;52.368;9.966;2022-12-07T11:53:49;6.00;1.00
13744;DHT22;6943;52.368;9.966;2022-12-07T11:56:19;6.00;1.00
13744;DHT22;6943;52.368;9.966;2022-12-07T11:58:55;6.00;1.00
13744;DHT22;6943;52.368;9.966;2022-12-07T12:06:40;6.10;69.30
13744;DHT22;6943;52.368;9.966;2022-12-07T12:09:12;6.10;99.90
13744;DHT22;6943;52.368;9.966;2022-12-07T12:12:07;6.20;82.40
13744;DHT22;6943;52.368;9.966;2022-12-07T12:20:23;6.20;99.90
13744;DHT22;6943;52.368;9.966;2022-12-07T12:25:29;6.30;99.90
13744;DHT22;6943;52.368;9.966;2022-12-07T12:27:58;6.30;1.00
13744;DHT22;6943;52.368;9.966;2022-12-07T12:30:29;6.40;1.00
13744;DHT22;6943;52.368;9.966;2022-12-07T12:33:03;6.40;1.00
13744;DHT22;6943;52.368;9.966;2022-12-07T12:35:33;6.50;1.00
13744;DHT22;6943;52.368;9.966;2022-12-07T12:38:33;6.50;99.90
13744;DHT22;6943;52.368;9.966;2022-12-07T12:44:02;6.60;99.90
13744;DHT22;6943;52.368;9.966;2022-12-07T12:51:45;6.40;99.90
13744;DHT22;6943;52.368;9.966;2022-12-07T12:54:22;6.30;99.90
13744;DHT22;6943;52.368;9.966;2022-12-07T12:57:04;6.30;1.00
13744;DHT22;6943;52.368;9.966;2022-12-07T12:59:36;6.30;1.00
13744;DHT22;6943;52.368;9.966;2022-12-07T13:02:26;6.30;1.00
13744;DHT22;6943;52.368;9.966;2022-12-07T13:04:55;6.20;1.00
13744;DHT22;6943;52.368;9.966;2022-12-07T13:10:31;6.30;1.00
13744;DHT22;6943;52.368;9.966;2022-12-07T13:15:48;6.20;1.00
13744;DHT22;6943;52.368;9.966;2022-12-07T13:26:22;6.20;1.00
13744;DHT22;6943;52.368;9.966;2022-12-07T13:28:51;6.10;1.00
13744;DHT22;6943;52.368;9.966;2022-12-07T13:31:36;6.10;1.00
13744;DHT22;6943;52.368;9.966;2022-12-07T13:34:05;6.10;99.90
13744;DHT22;6943;52.368;9.966;2022-12-07T13:36:38;6.00;99.90
13744;DHT22;6943;52.368;9.966;2022-12-07T13:41:41;6.00;99.90
13744;DHT22;6943;52.368;9.966;2022-12-07T13:44:15;6.00;93.70
13744;DHT22;6943;52.368;9.966;2022-12-07T13:49:44;5.90;72.80
13744;DHT22;6943;52.368;9.966;2022-12-07T13:52:28;5.90;99.90
13744;DHT22;6943;52.368;9.966;2022-12-07T13:55:15;6.00;99.90
13744;DHT22;6943;52.368;9.966;2022-12-07T13:57:42;6.00;99.90
13744;DHT22;6943;52.368;9.966;2022-12-07T14:00:19;6.00;1.00
13744;DHT22;6943;52.368;9.966;2022-12-07T14:05:26;5.90;1.00
13744;DHT22;6943;52.368;9.966;2022-12-07T14:07:57;5.90;1.00
13744;DHT22;6943;52.368;9.966;2022-12-07T14:10:31;5.90;1.00
13744;DHT22;6943;52.368;9.966;2022-12-07T14:12:59;5.90;1.00
13744;DHT22;6943;52.368;9.966;2022-12-07T14:15:33;5.90;1.00
13744;DHT22;6943;52.368;9.966;2022-12-07T14:18:00;5.80;1.00
13744;DHT22;6943;52.368;9.966;2022-12-07T14:20:36;5.90;1.00
13744;DHT22;6943;52.368;9.966;2022-12-07T14:23:02;5.90;1.00
13744;DHT22;6943;52.368;9.966;2022-12-07T14:25:47;5.80;1.00
13744;DHT22;6943;52.368;9.966;2022-12-07T14:28:31;5.80;1.00
13744;DHT22;6943;52.368;9.966;2022-12-07T14:30:57;5.70;1.00
13744;DHT22;6943;52.368;9.966;2022-12-07T14:33:24;5.80;1.00
13744;DHT22;6943;52.368;9.966;2022-12-07T14:35:49;5.70;1.00
13744;DHT22;6943;52.368;9.966;2022-12-07T14:38:15;5.70;1.00
13744;DHT22;6943;52.368;9.966;2022-12-07T14:40:40;5.70;1.00
13744;DHT22;6943;52.368;9.966;2022-12-07T14:43:11;5.60;1.00
13744;DHT22;6943;52.368;9.966;2022-12-07T14:45:37;5.70;1.00
13744;DHT22;6943;52.368;9.966;2022-12-07T14:48:05;5.60;1.00
13744;DHT22;6943;52.368;9.966;2022-12-07T14:50:35;5.60;1.00
13744;DHT22;6943;52.368;9.966;2022-12-07T14:53:13;5.60;1.00
13744;DHT22;6943;52.368;9.966;2022-12-07T14:55:40;5.60;1.00
13744;DHT22;6943;52.368;9.966;2022-12-07T14:58:05;5.60;1.00
13744;DHT22;6943;52.368;9.966;2022-12-07T15:00:31;5.50;1.00
13744;DHT22;6943;52.368;9.966;2022-12-07T15:02:58;5.50;1.00
13744;DHT22;6943;52.368;9.966;2022-12-07T15:05:24;5.40;1.00
13744;DHT22;6943;52.368;9.966;2022-12-07T15:07:50;5.40;9.80
13744;DHT22;6943;52.368;9.966;2022-12-07T15:10:25;5.30;1.00
13744;DHT22;6943;52.368;9.966;2022-12-07T15:12:55;5.30;1.00
13744;DHT22;6943;52.368;9.966;2022-12-07T15:15:41;5.30;99.90
13744;DHT22;6943;52.368;9.966;2022-12-07T15:18:06;5.30;99.90
13744;DHT22;6943;52.368;9.966;2022-12-07T15:20:32;5.30;99.90
13744;DHT22;6943;52.368;9.966;2022-12-07T15:22:57;5.20;99.90
13744;DHT22;6943;52.368;9.966;2022-12-07T15:25:23;5.20;99.90
13744;DHT22;6943;52.368;9.966;2022-12-07T15:27:48;5.10;99.90
13744;DHT22;6943;52.368;9.966;2022-12-07T15:30:14;5.10;99.90
13744;DHT22;6943;52.368;9.966;2022-12-07T15:32:39;5.10;1.00
13744;DHT22;6943;52.368;9.966;2022-12-07T15:35:05;5.10;1.00
13744;DHT22;6943;52.368;9.966;2022-12-07T15:37:31;5.10;99.90
13744;DHT22;6943;52.368;9.966;2022-12-07T15:39:56;5.10;99.90
13744;DHT22;6943;52.368;9.966;2022-12-07T15:42:22;5.20;1.00
13744;DHT22;6943;52.368;9.966;2022-12-07T15:44:47;5.20;1.00
13744;DHT22;6943;52.368;9.966;2022-12-07T15:47:36;5.20;99.90
13744;DHT22;6943;52.368;9.966;2022-12-07T15:50:07;5.30;99.90
13744;DHT22;6943;52.368;9.966;2022-12-07T15:52:33;5.30;99.90
13744;DHT22;6943;52.368;9.966;2022-12-07T15:54:59;5.30;99.90
13744;DHT22;6943;52.368;9.966;2022-12-07T15:57:35;5.30;99.90
13744;DHT22;6943;52.368;9.966;2022-12-07T16:00:00;5.30;1.00
13744;DHT22;6943;52.368;9.966;2022-12-07T16:02:26;5.30;1.00
13744;DHT22;6943;52.368;9.966;2022-12-07T16:04:52;5.30;1.00
13744;DHT22;6943;52.368;9.966;2022-12-07T16:07:18;5.30;1.00
13744;DHT22;6943;52.368;9.966;2022-12-07T16:09:45;5.40;1.00
13744;DHT22;6943;52.368;9.966;2022-12-07T16:12:12;5.40;1.00
13744;DHT22;6943;52.368;9.966;2022-12-07T16:14:39;5.50;1.00
13744;DHT22;6943;52.368;9.966;2022-12-07T16:17:05;5.40;1.00
13744;DHT22;6943;52.368;9.966;2022-12-07T16:19:32;5.40;1.00
13744;DHT22;6943;52.368;9.966;2022-12-07T16:21:58;5.40;1.00
13744;DHT22;6943;52.368;9.966;2022-12-07T16:24:24;5.30;1.00
13744;DHT22;6943;52.368;9.966;2022-12-07T16:26:50;5.30;1.00
13744;DHT22;6943;52.368;9.966;2022-12-07T16:29:16;5.30;1.00
13744;DHT22;6943;52.368;9.966;2022-12-07T16:31:42;5.40;1.00
13744;DHT22;6943;52.368;9.966;2022-12-07T16:34:09;5.40;1.00
13744;DHT22;6943;52.368;9.966;2022-12-07T16:36:34;5.20;1.00
13744;DHT22;6943;52.368;9.966;2022-12-07T16:39:00;4.80;1.00
13744;DHT22;6943;52.368;9.966;2022-12-07T16:41:26;4.60;99.90
13744;DHT22;6943;52.368;9.966;2022-12-07T16:43:52;4.50;1.00
13744;DHT22;6943;52.368;9.966;2022-12-07T16:46:17;4.40;99.90
13744;DHT22;6943;52.368;9.966;2022-12-07T16:48:43;4.40;1.00
13744;DHT22;6943;52.368;9.966;2022-12-07T16:51:11;4.40;1.00
13744;DHT22;6943;52.368;9.966;2022-12-07T16:53:39;4.40;1.00
13744;DHT22;6943;52.368;9.966;2022-12-07T16:56:10;4.40;1.00
13744;DHT22;6943;52.368;9.966;2022-12-07T16:58:36;4.30;1.00
13744;DHT22;6943;52.368;9.966;2022-12-07T17:01:16;4.30;1.00
13744;DHT22;6943;52.368;9.966;2022-12-07T17:03:42;4.40;29.90
13744;DHT22;6943;52.368;9.966;2022-12-07T17:06:19;4.40;99.90
13744;DHT22;6943;52.368;9.966;2022-12-07T17:08:45;4.50;99.90
13744;DHT22;6943;52.368;9.966;2022-12-07T17:11:13;4.50;99.90
13744;DHT22;6943;52.368;9.966;2022-12-07T17:13:39;4.50;99.90
13744;DHT22;6943;52.368;9.966;2022-12-07T17:16:24;4.50;1.00
13744;DHT22;6943;52.368;9.966;2022-12-07T17:18:49;4.50;1.00
13744;DHT22;6943;52.368;9.966;2022-12-07T17:21:15;4.40;99.90
13744;DHT22;6943;52.368;9.966;2022-12-07T17:23:40;4.40;1.00
13744;DHT22;6943;52.368;9.966;2022-12-07T17:26:12;4.40;63.60
13744;DHT22;6943;52.368;9.966;2022-12-07T17:28:38;4.30;99.90
13744;DHT22;6943;52.368;9.966;2022-12-07T17:31:09;4.40;1.00
13744;DHT22;6943;52.368;9.966;2022-12-07T17:33:35;4.40;1.00
13744;DHT22;6943;52.368;9.966;2022-12-07T17:36:12;4.30;1.00
13744;DHT22;6943;52.368;9.966;2022-12-07T17:38:39;4.40;1.00
13744;DHT22;6943;52.368;9.966;2022-12-07T17:41:12;4.30;99.90
13744;DHT22;6943;52.368;9.966;2022-12-07T17:43:38;4.30;42.40
13744;DHT22;6943;52.368;9.966;2022-12-07T17:46:08;4.20;99.90
13744;DHT22;6943;52.368;9.966;2022-12-07T17:48:34;4.20;1.00
13744;DHT22;6943;52.368;9.966;2022-12-07T17:51:00;4.20;1.00
13744;DHT22;6943;52.368;9.966;2022-12-07T17:53:48;4.10;1.00
13744;DHT22;6943;52.368;9.966;2022-12-07T17:56:13;4.00;1.00
13744;DHT22;6943;52.368;9.966;2022-12-07T17:58:39;4.10;99.90
13744;DHT22;6943;52.368;9.966;2022-12-07T18:01:08;4.00;1.00
13744;DHT22;6943;52.368;9.966;2022-12-07T18:03:34;4.10;1.00
13744;DHT22;6943;52.368;9.966;2022-12-07T18:06:00;4.10;1.00
13744;DHT22;6943;52.368;9.966;2022-12-07T18:08:25;4.00;99.90
13744;DHT22;6943;52.368;9.966;2022-12-07T18:10:58;4.00;99.90
13744;DHT22;6943;52.368;9.966;2022-12-07T18:13:24;4.00;50.70
13744;DHT22;6943;52.368;9.966;2022-12-07T18:16:04;4.00;1.00
13744;DHT22;6943;52.368;9.966;2022-12-07T18:18:30;4.00;99.90
13744;DHT22;6943;52.368;9.966;2022-12-07T18:20:56;3.90;99.90
13744;DHT22;6943;52.368;9.966;2022-12-07T18:23:21;4.00;99.90
13744;DHT22;6943;52.368;9.966;2022-12-07T18:25:48;4.10;99.90
13744;DHT22;6943;52.368;9.966;2022-12-07T18:28:14;4.10;99.90
13744;DHT22;6943;52.368;9.966;2022-12-07T18:30:40;4.10;90.20